createdAt,value
2023-04-02T00:00:15.877Z,3.70
2023-04-02T00:00:37.005Z,3.80
2023-04-02T00:00:58.041Z,4.00
2023-04-02T00:01:19.148Z,3.80
2023-04-02T00:01:40.279Z,3.20
2023-04-02T00:02:01.363Z,3.70
2023-04-02T00:02:22.425Z,3.10
2023-04-02T00:02:43.527Z,3.60
2023-04-02T00:03:04.694Z,3.50
2023-04-02T00:03:25.799Z,3.40
2023-04-02T00:03:46.974Z,3.40
2023-04-02T00:04:08.123Z,3.00
2023-04-02T00:04:29.162Z,3.40
2023-04-02T00:04:50.230Z,3.30
2023-04-02T00:05:11.418Z,3.70
2023-04-02T00:05:32.640Z,4.00
2023-04-02T00:05:53.816Z,3.70
2023-04-02T00:06:14.877Z,3.50
2023-04-02T00:06:35.968Z,3.60
2023-04-02T00:06:57.081Z,2.90
2023-04-02T00:07:18.106Z,2.80
2023-04-02T00:07:39.162Z,2.80
2023-04-02T00:08:00.223Z,2.90
2023-04-02T00:08:21.263Z,3.80
2023-04-02T00:08:42.312Z,4.50
2023-04-02T00:09:03.396Z,3.90
2023-04-02T00:09:24.434Z,3.70
2023-04-02T00:09:45.504Z,3.80
2023-04-02T00:10:06.546Z,3.20
2023-04-02T00:10:27.596Z,2.80
2023-04-02T00:10:48.680Z,4.00
2023-04-02T00:11:09.745Z,4.40
2023-04-02T00:11:30.812Z,4.00
2023-04-02T00:11:52.047Z,4.70
2023-04-02T00:12:13.295Z,3.10
2023-04-02T00:12:34.342Z,2.80
2023-04-02T00:12:55.423Z,2.40
2023-04-02T00:13:16.467Z,3.10
2023-04-02T00:13:37.527Z,2.90
2023-04-02T00:13:58.577Z,2.90
2023-04-02T00:14:19.646Z,4.10
2023-04-02T00:14:40.704Z,2.80
2023-04-02T00:15:01.795Z,3.70
2023-04-02T00:15:22.886Z,3.20
2023-04-02T00:15:43.942Z,3.80
2023-04-02T00:16:05.009Z,3.60
2023-04-02T00:16:26.099Z,3.00
2023-04-02T00:16:47.326Z,3.00
2023-04-02T00:17:08.669Z,3.50
2023-04-02T00:17:29.783Z,3.60
2023-04-02T00:17:50.903Z,3.20
2023-04-02T00:18:12.035Z,3.00
2023-04-02T00:18:33.136Z,3.00
2023-04-02T00:18:54.177Z,2.90
2023-04-02T00:19:15.263Z,3.40
2023-04-02T00:19:36.303Z,2.90
2023-04-02T00:19:57.374Z,3.00
2023-04-02T00:20:18.441Z,3.50
2023-04-02T00:20:39.481Z,3.10
2023-04-02T00:21:00.525Z,2.50
2023-04-02T00:21:21.581Z,3.00
2023-04-02T00:21:42.661Z,3.30
2023-04-02T00:22:03.778Z,3.10
2023-04-02T00:22:24.896Z,3.00
2023-04-02T00:22:45.992Z,2.90
2023-04-02T00:23:07.072Z,3.80
2023-04-02T00:23:28.112Z,3.40
2023-04-02T00:23:49.174Z,2.90
2023-04-02T00:24:10.248Z,3.30
2023-04-02T00:24:31.296Z,4.20
2023-04-02T00:24:52.360Z,4.50
2023-04-02T00:25:13.486Z,3.60
2023-04-02T00:25:34.657Z,3.30
2023-04-02T00:25:55.828Z,3.10
2023-04-02T00:26:16.870Z,3.50
2023-04-02T00:26:37.934Z,2.90
2023-04-02T00:26:59.023Z,2.80
2023-04-02T00:27:20.059Z,3.80
2023-04-02T00:27:41.307Z,3.10
2023-04-02T00:28:02.411Z,3.60
2023-04-02T00:28:23.467Z,4.10
2023-04-02T00:28:44.566Z,2.80
2023-04-02T00:29:05.610Z,3.50
2023-04-02T00:29:26.666Z,3.50
2023-04-02T00:29:47.745Z,2.70
2023-04-02T00:30:08.798Z,3.50
2023-04-02T00:30:29.852Z,3.10
2023-04-02T00:30:50.911Z,3.10
2023-04-02T00:31:11.977Z,3.20
2023-04-02T00:31:33.067Z,3.60
2023-04-02T00:31:54.264Z,3.40
2023-04-02T00:32:15.538Z,3.40
2023-04-02T00:32:36.738Z,3.40
2023-04-02T00:32:57.915Z,3.50
2023-04-02T00:33:18.988Z,3.40
2023-04-02T00:33:40.039Z,3.10
2023-04-02T00:34:01.115Z,2.70
2023-04-02T00:34:22.161Z,3.80
2023-04-02T00:34:43.212Z,3.70
2023-04-02T00:35:04.330Z,3.70
2023-04-02T00:35:25.367Z,3.70
2023-04-02T00:35:46.443Z,4.00
2023-04-02T00:36:07.529Z,4.20
2023-04-02T00:36:28.549Z,3.30
2023-04-02T00:36:49.618Z,4.20
2023-04-02T00:37:10.661Z,4.70
2023-04-02T00:37:31.718Z,4.60
2023-04-02T00:37:52.770Z,2.70
2023-04-02T00:38:14.015Z,4.10
2023-04-02T00:38:35.284Z,4.00
2023-04-02T00:38:56.380Z,3.20
2023-04-02T00:39:17.419Z,2.70
2023-04-02T00:39:38.497Z,2.70
2023-04-02T00:39:59.530Z,3.80
2023-04-02T00:40:20.577Z,3.10
2023-04-02T00:40:41.639Z,3.20
2023-04-02T00:41:02.713Z,3.60
2023-04-02T00:41:23.791Z,3.90
2023-04-02T00:41:44.823Z,4.60
2023-04-02T00:42:05.890Z,3.70
2023-04-02T00:42:26.950Z,4.40
2023-04-02T00:42:48.012Z,3.30
2023-04-02T00:43:09.135Z,4.10
2023-04-02T00:43:30.361Z,3.90
2023-04-02T00:43:51.617Z,3.10
2023-04-02T00:44:12.662Z,2.70
2023-04-02T00:44:33.824Z,2.90
2023-04-02T00:44:54.854Z,3.00
2023-04-02T00:45:15.906Z,3.40
2023-04-02T00:45:37.312Z,3.30
2023-04-02T00:45:58.426Z,3.10
2023-04-02T00:46:19.480Z,3.40
2023-04-02T00:46:40.561Z,3.40
2023-04-02T00:47:01.631Z,2.60
2023-04-02T00:47:22.736Z,3.20
2023-04-02T00:47:43.814Z,3.20
2023-04-02T00:48:04.887Z,3.20
2023-04-02T00:48:25.926Z,2.70
2023-04-02T00:48:47.043Z,2.90
2023-04-02T00:49:08.120Z,3.90
2023-04-02T00:49:29.147Z,3.60
2023-04-02T00:49:50.230Z,4.00
2023-04-02T00:50:11.298Z,3.50
2023-04-02T00:50:32.371Z,3.30
2023-04-02T00:50:53.429Z,3.80
2023-04-02T00:51:14.485Z,3.70
2023-04-02T00:51:35.558Z,3.10
2023-04-02T00:51:56.606Z,3.30
2023-04-02T00:52:17.658Z,4.20
2023-04-02T00:52:38.731Z,3.20
2023-04-02T00:52:59.789Z,3.10
2023-04-02T00:53:20.840Z,3.70
2023-04-02T00:53:41.938Z,2.90
2023-04-02T00:54:03.022Z,3.90
2023-04-02T00:54:24.086Z,4.20
2023-04-02T00:54:45.114Z,3.70
2023-04-02T00:55:06.221Z,3.00
2023-04-02T00:55:27.289Z,4.00
2023-04-02T00:55:48.391Z,3.80
2023-04-02T00:56:09.433Z,3.70
2023-04-02T00:56:30.473Z,3.50
2023-04-02T00:56:51.575Z,4.00
2023-04-02T00:57:12.650Z,3.90
2023-04-02T00:57:33.799Z,3.40
2023-04-02T00:57:54.841Z,3.10
2023-04-02T00:58:15.890Z,3.20
2023-04-02T00:58:36.954Z,3.60
2023-04-02T00:58:58.029Z,3.40
2023-04-02T00:59:19.099Z,3.70
2023-04-02T00:59:40.178Z,4.00
2023-04-02T01:00:01.270Z,4.70
2023-04-02T01:00:22.323Z,4.30
2023-04-02T01:00:43.388Z,5.30
2023-04-02T01:01:04.499Z,5.40
2023-04-02T01:01:25.888Z,4.10
2023-04-02T01:01:47.171Z,3.90
2023-04-02T01:02:08.420Z,4.30
2023-04-02T01:02:29.581Z,4.20
2023-04-02T01:02:51.012Z,3.70
2023-04-02T01:03:12.219Z,3.70
2023-04-02T01:03:33.651Z,3.60
2023-04-02T01:03:54.971Z,4.40
2023-04-02T01:04:16.025Z,3.70
2023-04-02T01:04:37.186Z,4.40
2023-04-02T01:04:58.303Z,4.90
2023-04-02T01:05:19.377Z,4.00
2023-04-02T01:05:40.502Z,5.30
2023-04-02T01:06:01.704Z,4.80
2023-04-02T01:06:22.750Z,4.10
2023-04-02T01:06:43.802Z,3.40
2023-04-02T01:07:04.861Z,3.60
2023-04-02T01:07:25.909Z,4.00
2023-04-02T01:07:46.962Z,4.30
2023-04-02T01:08:08.084Z,4.50
2023-04-02T01:08:29.124Z,3.70
2023-04-02T01:08:50.194Z,4.50
2023-04-02T01:09:11.237Z,4.00
2023-04-02T01:09:32.317Z,3.40
2023-04-02T01:09:53.383Z,3.80
2023-04-02T01:10:14.628Z,4.40
2023-04-02T01:10:35.817Z,5.40
2023-04-02T01:10:56.914Z,4.80
2023-04-02T01:11:17.983Z,3.70
2023-04-02T01:11:39.024Z,3.90
2023-04-02T01:12:00.132Z,3.50
2023-04-02T01:12:21.197Z,3.60
2023-04-02T01:12:42.213Z,4.10
2023-04-02T01:13:03.274Z,5.20
2023-04-02T01:13:24.356Z,4.40
2023-04-02T01:13:45.385Z,4.40
2023-04-02T01:14:06.441Z,4.50
2023-04-02T01:14:27.560Z,4.50
2023-04-02T01:14:48.613Z,4.40
2023-04-02T01:15:09.729Z,5.20
2023-04-02T01:15:30.883Z,3.90
2023-04-02T01:15:51.976Z,3.80
2023-04-02T01:16:13.036Z,4.50
2023-04-02T01:16:34.085Z,4.50
2023-04-02T01:16:55.182Z,4.50
2023-04-02T01:17:16.235Z,4.50
2023-04-02T01:17:37.317Z,4.10
2023-04-02T01:17:58.444Z,3.80
2023-04-02T01:18:19.526Z,4.80
2023-04-02T01:18:40.583Z,4.00
2023-04-02T01:19:01.668Z,5.60
2023-04-02T01:19:22.718Z,5.20
2023-04-02T01:19:43.795Z,4.30
2023-04-02T01:20:04.836Z,4.50
2023-04-02T01:20:26.071Z,4.80
2023-04-02T01:20:47.169Z,4.90
2023-04-02T01:21:08.225Z,5.00
2023-04-02T01:21:29.300Z,5.00
2023-04-02T01:21:50.358Z,5.20
2023-04-02T01:22:11.408Z,5.10
2023-04-02T01:22:32.458Z,4.50
2023-04-02T01:22:53.552Z,4.90
2023-04-02T01:23:14.614Z,4.30
2023-04-02T01:23:35.677Z,5.10
2023-04-02T01:23:56.734Z,4.90
2023-04-02T01:24:17.792Z,4.50
2023-04-02T01:24:38.886Z,4.50
2023-04-02T01:24:59.927Z,4.20
2023-04-02T01:25:20.979Z,4.30
2023-04-02T01:25:42.246Z,4.20
2023-04-02T01:26:03.338Z,4.40
2023-04-02T01:26:24.392Z,4.10
2023-04-02T01:26:45.466Z,4.10
2023-04-02T01:27:06.521Z,4.10
2023-04-02T01:27:27.565Z,4.80
2023-04-02T01:27:48.638Z,5.50
2023-04-02T01:28:09.690Z,5.00
2023-04-02T01:28:30.737Z,5.00
2023-04-02T01:28:51.814Z,4.70
2023-04-02T01:29:12.885Z,3.90
2023-04-02T01:29:33.928Z,4.20
2023-04-02T01:29:54.987Z,4.90
2023-04-02T01:30:16.074Z,5.00
2023-04-02T01:30:37.089Z,4.20
2023-04-02T01:30:58.174Z,4.10
2023-04-02T01:31:19.559Z,4.60
2023-04-02T01:31:40.636Z,5.10
2023-04-02T01:32:01.675Z,4.90
2023-04-02T01:32:22.754Z,4.40
2023-04-02T01:32:43.855Z,4.80
2023-04-02T01:33:04.925Z,5.10
2023-04-02T01:33:25.978Z,4.80
2023-04-02T01:33:47.079Z,4.20
2023-04-02T01:34:08.105Z,4.60
2023-04-02T01:34:29.170Z,4.50
2023-04-02T01:34:50.225Z,5.00
2023-04-02T01:35:11.277Z,4.60
2023-04-02T01:35:32.323Z,4.70
2023-04-02T01:35:53.432Z,5.50
2023-04-02T01:36:14.766Z,4.60
2023-04-02T01:36:35.875Z,4.50
2023-04-02T01:36:56.904Z,5.30
2023-04-02T01:37:17.963Z,4.30
2023-04-02T01:37:39.010Z,4.70
2023-04-02T01:38:00.113Z,4.60
2023-04-02T01:38:21.154Z,4.60
2023-04-02T01:38:42.213Z,5.80
2023-04-02T01:39:03.261Z,4.70
2023-04-02T01:39:24.322Z,5.20
2023-04-02T01:39:45.480Z,4.90
2023-04-02T01:40:06.540Z,4.60
2023-04-02T01:40:27.587Z,5.40
2023-04-02T01:40:48.637Z,6.10
2023-04-02T01:41:09.703Z,5.10
2023-04-02T01:41:30.790Z,6.30
2023-04-02T01:41:52.021Z,5.50
2023-04-02T01:42:13.131Z,5.80
2023-04-02T01:42:34.158Z,5.90
2023-04-02T01:42:55.204Z,6.00
2023-04-02T01:43:16.298Z,4.60
2023-04-02T01:43:37.316Z,4.50
2023-04-02T01:43:58.380Z,4.40
2023-04-02T01:44:19.440Z,5.60
2023-04-02T01:44:40.504Z,5.50
2023-04-02T01:45:01.577Z,4.90
2023-04-02T01:45:22.618Z,5.00
2023-04-02T01:45:43.678Z,5.40
2023-04-02T01:46:04.744Z,5.80
2023-04-02T01:46:25.876Z,5.50
2023-04-02T01:46:47.093Z,5.70
2023-04-02T01:47:08.215Z,6.10
2023-04-02T01:47:29.310Z,6.30
2023-04-02T01:47:50.439Z,5.90
2023-04-02T01:48:11.492Z,6.20
2023-04-02T01:48:32.537Z,5.30
2023-04-02T01:48:53.588Z,5.20
2023-04-02T01:49:14.653Z,5.20
2023-04-02T01:49:35.706Z,6.20
2023-04-02T01:49:56.899Z,5.80
2023-04-02T01:50:17.959Z,6.00
2023-04-02T01:50:39.002Z,5.40
2023-04-02T01:51:00.044Z,5.00
2023-04-02T01:51:21.110Z,6.00
2023-04-02T01:51:42.178Z,6.10
2023-04-02T01:52:03.274Z,5.90
2023-04-02T01:52:24.424Z,5.60
2023-04-02T01:52:45.456Z,5.50
2023-04-02T01:53:06.520Z,5.60
2023-04-02T01:53:27.577Z,5.90
2023-04-02T01:53:48.622Z,6.30
2023-04-02T01:54:09.679Z,5.60
2023-04-02T01:54:30.738Z,5.10
2023-04-02T01:54:51.831Z,5.80
2023-04-02T01:55:12.887Z,5.20
2023-04-02T01:55:34.098Z,4.50
2023-04-02T01:55:55.261Z,5.20
2023-04-02T01:56:16.307Z,5.20
2023-04-02T01:56:37.366Z,6.00
2023-04-02T01:56:58.502Z,4.90
2023-04-02T01:57:19.816Z,4.20
2023-04-02T01:57:41.068Z,4.70
2023-04-02T01:58:02.141Z,5.20
2023-04-02T01:58:23.185Z,5.50
2023-04-02T01:58:44.262Z,5.40
2023-04-02T01:59:05.313Z,5.70
2023-04-02T01:59:26.383Z,4.80
2023-04-02T01:59:47.430Z,5.60
2023-04-02T02:00:08.480Z,5.90
2023-04-02T02:00:29.576Z,5.70
2023-04-02T02:00:50.650Z,6.20
2023-04-02T02:01:11.740Z,6.20
2023-04-02T02:01:32.840Z,4.90
2023-04-02T02:01:53.894Z,4.80
2023-04-02T02:02:15.134Z,4.30
2023-04-02T02:02:36.487Z,4.60
2023-04-02T02:02:57.828Z,4.30
2023-04-02T02:03:18.916Z,5.20
2023-04-02T02:03:39.940Z,6.30
2023-04-02T02:04:01.009Z,7.40
2023-04-02T02:04:22.080Z,5.90
2023-04-02T02:04:43.109Z,4.40
2023-04-02T02:05:04.172Z,5.30
2023-04-02T02:05:25.245Z,5.30
2023-04-02T02:05:46.295Z,4.50
2023-04-02T02:06:07.352Z,5.00
2023-04-02T02:06:28.437Z,6.00
2023-04-02T02:06:49.474Z,5.10
2023-04-02T02:07:10.572Z,4.80
2023-04-02T02:07:31.594Z,4.90
2023-04-02T02:07:52.698Z,5.00
2023-04-02T02:08:13.779Z,4.70
2023-04-02T02:08:34.847Z,4.60
2023-04-02T02:08:55.906Z,6.20
2023-04-02T02:09:16.978Z,5.60
2023-04-02T02:09:38.050Z,5.40
2023-04-02T02:09:59.127Z,5.30
2023-04-02T02:10:20.181Z,5.60
2023-04-02T02:10:41.222Z,5.30
2023-04-02T02:11:02.286Z,5.10
2023-04-02T02:11:23.340Z,4.80
2023-04-02T02:11:44.394Z,4.20
2023-04-02T02:12:05.442Z,4.70
2023-04-02T02:12:26.516Z,5.40
2023-04-02T02:12:47.574Z,5.40
2023-04-02T02:13:08.856Z,4.60
2023-04-02T02:13:30.094Z,4.60
2023-04-02T02:13:51.136Z,4.90
2023-04-02T02:14:12.208Z,4.30
2023-04-02T02:14:33.279Z,5.00
2023-04-02T02:14:54.325Z,5.70
2023-04-02T02:15:15.371Z,4.60
2023-04-02T02:15:36.773Z,4.20
2023-04-02T02:15:58.073Z,4.50
2023-04-02T02:16:19.123Z,5.60
2023-04-02T02:16:40.230Z,4.70
2023-04-02T02:17:01.305Z,4.50
2023-04-02T02:17:22.369Z,5.20
2023-04-02T02:17:43.437Z,5.60
2023-04-02T02:18:04.550Z,5.00
2023-04-02T02:18:25.765Z,4.50
2023-04-02T02:18:46.842Z,5.20
2023-04-02T02:19:07.906Z,4.80
2023-04-02T02:19:28.969Z,4.30
2023-04-02T02:19:50.037Z,4.40
2023-04-02T02:20:11.133Z,4.20
2023-04-02T02:20:32.191Z,3.70
2023-04-02T02:20:53.274Z,4.40
2023-04-02T02:21:14.293Z,4.60
2023-04-02T02:21:35.368Z,4.30
2023-04-02T02:21:56.423Z,4.50
2023-04-02T02:22:17.481Z,5.00
2023-04-02T02:22:38.543Z,4.90
2023-04-02T02:22:59.589Z,4.20
2023-04-02T02:23:20.662Z,4.60
2023-04-02T02:23:41.937Z,4.80
2023-04-02T02:24:03.161Z,5.20
2023-04-02T02:24:24.231Z,4.80
2023-04-02T02:24:45.300Z,4.70
2023-04-02T02:25:06.355Z,4.90
2023-04-02T02:25:27.400Z,4.80
2023-04-02T02:25:48.450Z,4.70
2023-04-02T02:26:09.524Z,4.20
2023-04-02T02:26:30.573Z,4.70
2023-04-02T02:26:51.638Z,4.90
2023-04-02T02:27:12.719Z,5.20
2023-04-02T02:27:33.780Z,4.40
2023-04-02T02:27:54.805Z,4.00
2023-04-02T02:28:15.865Z,4.90
2023-04-02T02:28:36.924Z,4.90
2023-04-02T02:28:58.070Z,5.60
2023-04-02T02:29:19.296Z,5.70
2023-04-02T02:29:40.353Z,4.50
2023-04-02T02:30:01.460Z,5.10
2023-04-02T02:30:22.472Z,5.40
2023-04-02T02:30:43.738Z,4.40
2023-04-02T02:31:04.751Z,4.50
2023-04-02T02:31:25.853Z,5.00
2023-04-02T02:31:47.074Z,4.90
2023-04-02T02:32:08.163Z,4.60
2023-04-02T02:32:29.300Z,4.60
2023-04-02T02:32:50.376Z,4.40
2023-04-02T02:33:11.395Z,4.90
2023-04-02T02:33:32.483Z,5.40
2023-04-02T02:33:53.533Z,5.10
2023-04-02T02:34:14.616Z,5.20
2023-04-02T02:34:35.712Z,5.80
2023-04-02T02:34:56.782Z,4.90
2023-04-02T02:35:17.838Z,5.80
2023-04-02T02:35:39.226Z,5.10
2023-04-02T02:36:00.396Z,5.10
2023-04-02T02:36:21.495Z,5.10
2023-04-02T02:36:42.535Z,5.60
2023-04-02T02:37:03.646Z,5.00
2023-04-02T02:37:24.708Z,5.10
2023-04-02T02:37:45.766Z,5.30
2023-04-02T02:38:06.831Z,5.30
2023-04-02T02:38:27.973Z,5.50
2023-04-02T02:38:48.998Z,5.40
2023-04-02T02:39:10.057Z,4.70
2023-04-02T02:39:31.145Z,4.40
2023-04-02T02:39:52.237Z,5.20
2023-04-02T02:40:13.310Z,5.00
2023-04-02T02:40:34.354Z,4.50
2023-04-02T02:40:55.448Z,5.00
2023-04-02T02:41:16.473Z,5.50
2023-04-02T02:41:37.540Z,5.90
2023-04-02T02:41:58.594Z,5.10
2023-04-02T02:42:19.685Z,5.80
2023-04-02T02:42:40.730Z,5.50
2023-04-02T02:43:01.788Z,5.70
2023-04-02T02:43:22.858Z,6.80
2023-04-02T02:43:43.910Z,5.60
2023-04-02T02:44:04.992Z,4.80
2023-04-02T02:44:26.048Z,5.60
2023-04-02T02:44:47.173Z,5.10
2023-04-02T02:45:08.241Z,5.20
2023-04-02T02:45:29.334Z,5.70
2023-04-02T02:45:50.375Z,6.20
2023-04-02T02:46:11.437Z,4.10
2023-04-02T02:46:32.546Z,5.40
2023-04-02T02:46:53.599Z,5.40
2023-04-02T02:47:14.669Z,4.90
2023-04-02T02:47:35.751Z,4.80
2023-04-02T02:47:56.820Z,6.20
2023-04-02T02:48:17.860Z,6.10
2023-04-02T02:48:39.017Z,6.60
2023-04-02T02:49:00.027Z,6.40
2023-04-02T02:49:21.081Z,5.60
2023-04-02T02:49:42.152Z,5.20
2023-04-02T02:50:03.242Z,6.60
2023-04-02T02:50:24.341Z,6.20
2023-04-02T02:50:45.392Z,5.40
2023-04-02T02:51:06.504Z,5.90
2023-04-02T02:51:27.529Z,5.80
2023-04-02T02:51:48.599Z,4.90
2023-04-02T02:52:09.629Z,5.90
2023-04-02T02:52:30.682Z,5.10
2023-04-02T02:52:51.750Z,5.20
2023-04-02T02:53:12.808Z,5.30
2023-04-02T02:53:33.900Z,5.80
2023-04-02T02:53:54.936Z,5.50
2023-04-02T02:54:15.998Z,6.10
2023-04-02T02:54:37.058Z,6.60
2023-04-02T02:54:58.116Z,6.70
2023-04-02T02:55:19.400Z,6.40
2023-04-02T02:55:40.643Z,5.30
2023-04-02T02:56:01.780Z,5.40
2023-04-02T02:56:22.839Z,5.70
2023-04-02T02:56:43.897Z,5.80
2023-04-02T02:57:05.020Z,5.90
2023-04-02T02:57:26.209Z,5.30
2023-04-02T02:57:47.301Z,6.10
2023-04-02T02:58:08.363Z,6.50
2023-04-02T02:58:29.415Z,6.00
2023-04-02T02:58:50.482Z,6.60
2023-04-02T02:59:11.541Z,7.00
2023-04-02T02:59:32.598Z,6.40
2023-04-02T02:59:53.657Z,6.30
2023-04-02T03:00:14.738Z,8.20
2023-04-02T03:00:35.794Z,6.20
2023-04-02T03:00:56.934Z,7.00
2023-04-02T03:01:18.005Z,5.90
2023-04-02T03:01:39.087Z,6.80
2023-04-02T03:02:00.209Z,8.60
2023-04-02T03:02:21.296Z,8.70
2023-04-02T03:02:42.558Z,6.00
2023-04-02T03:03:03.816Z,6.80
2023-04-02T03:03:25.157Z,6.30
2023-04-02T03:03:46.384Z,6.40
2023-04-02T03:04:07.754Z,7.20
2023-04-02T03:04:28.871Z,6.10
2023-04-02T03:04:49.922Z,7.40
2023-04-02T03:05:10.983Z,6.80
2023-04-02T03:05:32.105Z,6.90
2023-04-02T03:05:53.187Z,6.70
2023-04-02T03:06:14.283Z,6.40
2023-04-02T03:06:35.336Z,7.60
2023-04-02T03:06:56.395Z,7.00
2023-04-02T03:07:17.493Z,6.60
2023-04-02T03:07:38.517Z,6.30
2023-04-02T03:07:59.575Z,7.20
2023-04-02T03:08:20.660Z,7.20
2023-04-02T03:08:41.774Z,6.20
2023-04-02T03:09:02.818Z,5.90
2023-04-02T03:09:23.850Z,6.30
2023-04-02T03:09:44.916Z,6.90
2023-04-02T03:10:05.977Z,6.50
2023-04-02T03:10:27.054Z,5.80
2023-04-02T03:10:48.112Z,6.70
2023-04-02T03:11:09.184Z,7.50
2023-04-02T03:11:30.278Z,6.50
2023-04-02T03:11:51.328Z,7.00
2023-04-02T03:12:12.397Z,6.70
2023-04-02T03:12:33.505Z,6.30
2023-04-02T03:12:54.631Z,6.10
2023-04-02T03:13:15.666Z,7.20
2023-04-02T03:13:36.722Z,6.90
2023-04-02T03:13:57.786Z,6.30
2023-04-02T03:14:18.858Z,7.00
2023-04-02T03:14:39.889Z,7.00
2023-04-02T03:15:00.945Z,7.80
2023-04-02T03:15:22.064Z,7.90
2023-04-02T03:15:43.125Z,7.00
2023-04-02T03:16:04.200Z,6.00
2023-04-02T03:16:25.466Z,7.00
2023-04-02T03:16:46.617Z,7.20
2023-04-02T03:17:07.676Z,7.10
2023-04-02T03:17:28.797Z,7.20
2023-04-02T03:17:49.849Z,8.90
2023-04-02T03:18:10.906Z,7.80
2023-04-02T03:18:31.983Z,8.00
2023-04-02T03:18:53.035Z,7.60
2023-04-02T03:19:14.078Z,7.00
2023-04-02T03:19:35.143Z,7.60
2023-04-02T03:19:56.198Z,7.60
2023-04-02T03:20:17.258Z,8.40
2023-04-02T03:20:38.323Z,7.80
2023-04-02T03:20:59.389Z,6.90
2023-04-02T03:21:20.451Z,6.90
2023-04-02T03:21:41.538Z,7.30
2023-04-02T03:22:02.797Z,7.70
2023-04-02T03:22:23.835Z,8.30
2023-04-02T03:22:44.898Z,7.60
2023-04-02T03:23:05.948Z,8.30
2023-04-02T03:23:27.011Z,7.70
2023-04-02T03:23:48.087Z,7.80
2023-04-02T03:24:09.130Z,7.10
2023-04-02T03:24:30.186Z,7.20
2023-04-02T03:24:51.241Z,8.30
2023-04-02T03:25:12.302Z,7.90
2023-04-02T03:25:33.624Z,7.50
2023-04-02T03:25:54.786Z,7.00
2023-04-02T03:26:15.844Z,7.30
2023-04-02T03:26:36.952Z,8.10
2023-04-02T03:26:58.073Z,7.70
2023-04-02T03:27:19.337Z,7.80
2023-04-02T03:27:40.381Z,7.70
2023-04-02T03:28:01.441Z,8.30
2023-04-02T03:28:22.513Z,8.70
2023-04-02T03:28:43.568Z,8.70
2023-04-02T03:29:04.634Z,8.10
2023-04-02T03:29:25.707Z,7.40
2023-04-02T03:29:46.747Z,7.60
2023-04-02T03:30:07.802Z,8.80
2023-04-02T03:30:28.877Z,8.20
2023-04-02T03:30:49.935Z,9.10
2023-04-02T03:31:11.030Z,8.20
2023-04-02T03:31:32.160Z,8.20
2023-04-02T03:31:53.207Z,8.60
2023-04-02T03:32:14.303Z,8.10
2023-04-02T03:32:35.447Z,8.60
2023-04-02T03:32:56.564Z,8.60
2023-04-02T03:33:17.653Z,9.30
2023-04-02T03:33:38.728Z,9.20
2023-04-02T03:33:59.773Z,8.20
2023-04-02T03:34:20.851Z,8.40
2023-04-02T03:34:41.915Z,8.30
2023-04-02T03:35:02.967Z,8.40
2023-04-02T03:35:24.020Z,9.30
2023-04-02T03:35:45.110Z,9.60
2023-04-02T03:36:06.195Z,8.80
2023-04-02T03:36:27.229Z,8.60
2023-04-02T03:36:48.288Z,9.30
2023-04-02T03:37:09.397Z,8.70
2023-04-02T03:37:30.457Z,8.00
2023-04-02T03:37:51.549Z,9.30
2023-04-02T03:38:12.622Z,8.60
2023-04-02T03:38:33.688Z,7.90
2023-04-02T03:38:54.738Z,8.80
2023-04-02T03:39:15.796Z,8.50
2023-04-02T03:39:36.853Z,8.30
2023-04-02T03:39:57.990Z,7.90
2023-04-02T03:40:19.024Z,8.20
2023-04-02T03:40:40.089Z,9.60
2023-04-02T03:41:01.141Z,8.60
2023-04-02T03:41:22.195Z,8.40
2023-04-02T03:41:43.251Z,7.30
2023-04-02T03:42:04.338Z,8.90
2023-04-02T03:42:25.386Z,9.30
2023-04-02T03:42:46.685Z,9.00
2023-04-02T03:43:07.897Z,8.30
2023-04-02T03:43:28.969Z,8.30
2023-04-02T03:43:50.012Z,8.70
2023-04-02T03:44:11.070Z,9.30
2023-04-02T03:44:32.137Z,8.20
2023-04-02T03:44:53.197Z,10.60
2023-04-02T03:45:14.263Z,10.10
2023-04-02T03:45:35.497Z,9.40
2023-04-02T03:45:56.639Z,9.30
2023-04-02T03:46:17.734Z,8.20
2023-04-02T03:46:38.777Z,8.40
2023-04-02T03:46:59.868Z,8.60
2023-04-02T03:47:20.983Z,7.80
2023-04-02T03:47:42.031Z,9.10
2023-04-02T03:48:03.193Z,8.80
2023-04-02T03:48:24.436Z,9.10
2023-04-02T03:48:45.497Z,9.10
2023-04-02T03:49:06.561Z,8.50
2023-04-02T03:49:27.681Z,9.60
2023-04-02T03:49:48.728Z,8.20
2023-04-02T03:50:09.806Z,8.10
2023-04-02T03:50:30.884Z,9.20
2023-04-02T03:50:51.928Z,9.00
2023-04-02T03:51:12.989Z,9.20
2023-04-02T03:51:34.031Z,8.80
2023-04-02T03:51:55.103Z,8.10
2023-04-02T03:52:16.159Z,8.60
2023-04-02T03:52:37.244Z,8.50
2023-04-02T03:52:58.311Z,8.20
2023-04-02T03:53:19.547Z,8.80
2023-04-02T03:53:40.636Z,9.50
2023-04-02T03:54:01.750Z,9.00
2023-04-02T03:54:22.761Z,8.40
2023-04-02T03:54:53.155Z,8.50
2023-04-02T03:55:10.788Z,8.70
2023-04-02T03:55:31.890Z,9.00
2023-04-02T03:55:52.986Z,10.40
2023-04-02T03:56:14.017Z,9.50
2023-04-02T03:56:35.077Z,9.20
2023-04-02T03:56:56.204Z,8.50
2023-04-02T03:57:17.252Z,8.40
2023-04-02T03:57:38.293Z,7.90
2023-04-02T03:57:59.378Z,9.00
2023-04-02T03:58:20.626Z,10.30
2023-04-02T03:58:41.688Z,8.70
2023-04-02T03:59:02.775Z,8.10
2023-04-02T03:59:23.902Z,8.30
2023-04-02T03:59:44.981Z,9.00
2023-04-02T04:00:08.492Z,9.10
2023-04-02T04:00:29.523Z,9.20
2023-04-02T04:00:50.607Z,9.20
2023-04-02T04:01:11.669Z,9.60
2023-04-02T04:01:32.732Z,9.40
2023-04-02T04:01:53.858Z,8.70
2023-04-02T04:02:14.883Z,8.20
2023-04-02T04:02:35.973Z,8.80
2023-04-02T04:02:57.116Z,9.40
2023-04-02T04:03:18.178Z,10.10
2023-04-02T04:03:39.278Z,9.20
2023-04-02T04:04:00.557Z,9.20
2023-04-02T04:04:21.679Z,10.40
2023-04-02T04:04:42.697Z,9.20
2023-04-02T04:05:03.788Z,8.70
2023-04-02T04:05:24.804Z,9.20
2023-04-02T04:05:45.864Z,9.10
2023-04-02T04:06:06.945Z,8.80
2023-04-02T04:06:27.985Z,9.20
2023-04-02T04:06:49.033Z,9.60
2023-04-02T04:07:10.117Z,9.80
2023-04-02T04:07:31.150Z,10.20
2023-04-02T04:07:52.210Z,9.60
2023-04-02T04:08:13.252Z,10.10
2023-04-02T04:08:34.323Z,9.70
2023-04-02T04:08:55.423Z,9.60
2023-04-02T04:09:16.504Z,10.20
2023-04-02T04:09:37.622Z,10.10
2023-04-02T04:09:58.677Z,9.30
2023-04-02T04:10:19.722Z,9.40
2023-04-02T04:10:40.788Z,10.10
2023-04-02T04:11:01.893Z,8.90
2023-04-02T04:11:23.167Z,10.10
2023-04-02T04:11:44.192Z,10.00
2023-04-02T04:12:05.290Z,9.00
2023-04-02T04:12:26.433Z,10.60
2023-04-02T04:12:47.455Z,10.60
2023-04-02T04:13:08.531Z,9.50
2023-04-02T04:13:29.597Z,10.70
2023-04-02T04:13:50.670Z,9.80
2023-04-02T04:14:11.738Z,8.10
2023-04-02T04:14:32.984Z,9.40
2023-04-02T04:14:54.024Z,9.90
2023-04-02T04:15:15.137Z,9.20
2023-04-02T04:15:36.459Z,10.70
2023-04-02T04:15:57.745Z,10.10
2023-04-02T04:16:18.854Z,9.90
2023-04-02T04:16:39.913Z,11.30
2023-04-02T04:17:00.966Z,10.80
2023-04-02T04:17:22.021Z,10.20
2023-04-02T04:17:43.144Z,10.50
2023-04-02T04:18:04.242Z,9.80
2023-04-02T04:18:25.314Z,9.40
2023-04-02T04:18:46.391Z,9.90
2023-04-02T04:19:07.444Z,10.30
2023-04-02T04:19:28.680Z,9.70
2023-04-02T04:19:49.914Z,10.00
2023-04-02T04:20:10.974Z,10.30
2023-04-02T04:20:32.092Z,10.30
2023-04-02T04:20:53.121Z,10.30
2023-04-02T04:21:14.169Z,10.30
2023-04-02T04:21:35.243Z,9.20
2023-04-02T04:21:56.289Z,10.40
2023-04-02T04:22:17.350Z,9.50
2023-04-02T04:22:38.408Z,10.10
2023-04-02T04:22:59.487Z,10.00
2023-04-02T04:23:20.514Z,10.90
2023-04-02T04:23:41.576Z,11.70
2023-04-02T04:24:02.641Z,10.80
2023-04-02T04:24:23.712Z,10.50
2023-04-02T04:24:44.963Z,10.70
2023-04-02T04:25:06.039Z,9.70
2023-04-02T04:25:27.117Z,10.50
2023-04-02T04:25:48.161Z,10.70
2023-04-02T04:26:09.245Z,11.80
2023-04-02T04:26:30.339Z,10.80
2023-04-02T04:26:51.364Z,10.90
2023-04-02T04:27:12.417Z,11.70
2023-04-02T04:27:33.636Z,10.10
2023-04-02T04:27:54.783Z,8.60
2023-04-02T04:28:15.862Z,9.60
2023-04-02T04:28:36.953Z,10.30
2023-04-02T04:28:58.004Z,10.80
2023-04-02T04:29:19.057Z,11.80
2023-04-02T04:29:40.114Z,11.00
2023-04-02T04:30:01.271Z,10.50
2023-04-02T04:30:22.318Z,10.30
2023-04-02T04:30:43.376Z,9.40
2023-04-02T04:31:04.433Z,10.40
2023-04-02T04:31:26.057Z,11.80
2023-04-02T04:31:47.386Z,10.10
2023-04-02T04:32:08.554Z,9.90
2023-04-02T04:32:29.644Z,11.00
2023-04-02T04:32:50.723Z,10.70
2023-04-02T04:33:11.771Z,10.70
2023-04-02T04:33:32.863Z,10.20
2023-04-02T04:33:53.894Z,9.50
2023-04-02T04:34:14.958Z,9.20
2023-04-02T04:34:36.012Z,10.80
2023-04-02T04:34:57.066Z,9.80
2023-04-02T04:35:18.154Z,10.20
2023-04-02T04:35:39.599Z,9.80
2023-04-02T04:36:00.874Z,10.70
2023-04-02T04:36:21.896Z,10.10
2023-04-02T04:36:42.962Z,10.30
2023-04-02T04:37:04.044Z,10.10
2023-04-02T04:37:25.106Z,10.10
2023-04-02T04:37:46.170Z,9.60
2023-04-02T04:38:07.223Z,10.30
2023-04-02T04:38:28.261Z,9.60
2023-04-02T04:38:49.321Z,10.10
2023-04-02T04:39:10.374Z,9.70
2023-04-02T04:39:31.447Z,11.00
2023-04-02T04:39:52.493Z,11.30
2023-04-02T04:40:13.542Z,10.20